Clavigo — V2NQ — position and weather

sailwx.info

Track history (hours):
 
Tides and Currents Weather Stations Pressure Air Temp Water Temp Dewpoint Dewpoint Depression Visibility Wind Speed Wind Dir Waves Ship Positions

Clavigo

Last reported at 2018-May-21 15:00 UTC. Time now 2018-May-21 15:14 UTC.
Position N 49°28' E 000°40'.

Length 88 m; draft 3.5 m.

Type: Cargo ship. MMSI: 304010290.

Date/timePositionNaut miles runAvg speedWind from/ knotsBaromVisibWave heightAir tempDewpointWater temp
2018-May-21 15:00N 49°28' E 000°40'4 8.2
2018-May-21 14:31N 49°27' E 000°34'4 8.6
2018-May-21 14:01N 49°28' E 000°28'611.9
2018-May-21 13:30N 49°26' E 000°20'611.9
2018-May-21 13:00N 49°26' E 000°10'511.0
2018-May-21 12:31N 49°27' E 000°02'4 8.7
2018-May-21 12:01N 49°29' W 000°04'2 3.4
2018-May-21 11:30N 49°28' W 000°06'0 0.1
2018-May-21 11:00N 49°28' W 000°06'0 0.1
2018-May-21 10:30N 49°28' W 000°06'0 0.1
2018-May-21 10:00N 49°28' W 000°07'0 0.1
2018-May-21 09:30N 49°28' W 000°07'0 0.0
2018-May-21 09:00N 49°28' W 000°07'0 0.0
2018-May-21 08:30N 49°28' W 000°07'0 0.0
2018-May-21 08:00N 49°28' W 000°07'0 0.0
2018-May-21 07:30N 49°28' W 000°07'0 0.0
2018-May-21 07:00N 49°28' W 000°07'0 0.0
2018-May-21 06:27N 49°28' W 000°07'0 0.0
2018-May-21 05:57N 49°28' W 000°07'0 0.0
2018-May-21 05:30N 49°28' W 000°07'0 0.0
2018-May-21 05:00N 49°28' W 000°07'0 0.0
2018-May-21 04:30N 49°28' W 000°07'0 0.0
2018-May-21 04:00N 49°28' W 000°07'0 0.0
2018-May-21 03:30N 49°28' W 000°07'0 0.0
2018-May-21 03:00N 49°28' W 000°06'0 0.1
2018-May-21 02:30N 49°28' W 000°06'0 0.1
2018-May-21 02:00N 49°28' W 000°06'0 0.0
2018-May-21 01:27N 49°28' W 000°06'0 0.0
2018-May-21 01:00N 49°28' W 000°06'0 0.0
2018-May-21 00:30N 49°28' W 000°06'0 0.0
2018-May-21 00:00N 49°28' W 000°06'0 0.0
2018-May-20 23:30N 49°28' W 000°06'0 0.0
2018-May-20 23:00N 49°28' W 000°06'0 0.2
2018-May-20 22:30N 49°28' W 000°07'0 0.0
2018-May-20 22:00N 49°28' W 000°07'0 0.0
2018-May-20 21:30N 49°28' W 000°07'0 0.0
2018-May-20 21:00N 49°28' W 000°07'0 0.0
2018-May-20 20:30N 49°28' W 000°07'0 0.0
2018-May-20 20:00N 49°28' W 000°07'0 0.0
2018-May-20 19:30N 49°28' W 000°07'0 0.0
2018-May-20 19:00N 49°28' W 000°07'0 0.0
2018-May-20 18:27N 49°28' W 000°07'0 0.0
2018-May-20 17:57N 49°28' W 000°07'0 0.0
2018-May-20 17:30N 49°28' W 000°07'0 0.0
2018-May-20 17:00N 49°28' W 000°07'0 0.0
2018-May-20 16:30N 49°28' W 000°07'0 0.0
2018-May-20 16:00N 49°28' W 000°07'0 0.1
2018-May-20 15:30N 49°28' W 000°07'0 0.1
2018-May-20 15:00N 49°28' W 000°06'0 0.1
2018-May-20 14:30N 49°28' W 000°07'0 0.0
2018-May-20 14:00N 49°28' W 000°07'0 0.0
2018-May-20 13:27N 49°28' W 000°06'0 0.1
2018-May-20 13:00N 49°28' W 000°06'0 0.1
2018-May-20 12:30N 49°28' W 000°06'0 0.0
2018-May-20 12:00N 49°28' W 000°06'0 0.1
2018-May-20 11:30N 49°28' W 000°06'0 0.1
2018-May-20 11:00N 49°28' W 000°06'0 0.0
2018-May-20 10:30N 49°28' W 000°06'0 0.0
2018-May-20 10:00N 49°28' W 000°06'0 0.0
2018-May-20 09:30N 49°28' W 000°07'0 0.1
2018-May-20 09:00N 49°28' W 000°07'0 0.0
2018-May-20 08:30N 49°28' W 000°07'0 0.0
2018-May-20 08:00N 49°28' W 000°07'0 0.0
2018-May-20 07:30N 49°28' W 000°07'0 0.0
2018-May-20 06:57N 49°28' W 000°07'0 0.0
2018-May-20 06:30N 49°28' W 000°07'0 0.0
2018-May-20 06:00N 49°28' W 000°07'0 0.1
2018-May-20 05:30N 49°28' W 000°07'2 3.2
2018-May-20 05:00N 49°28' W 000°09'4 7.1
2018-May-20 04:30N 49°29' W 000°14'3 5.1
2018-May-20 04:00N 49°29' W 000°18'3 5.3
2018-May-20 03:30N 49°30' W 000°22'3 5.5
2018-May-20 03:00N 49°30' W 000°26'2 4.0
2018-May-20 02:30N 49°32' W 000°28'3 6.1
2018-May-20 02:00N 49°35' W 000°27'3 6.1
2018-May-20 01:30N 49°38' W 000°26'3 6.1
2018-May-20 01:00N 49°41' W 000°25'3 6.3
2018-May-20 00:30N 49°44' W 000°24'3 6.2
2018-May-20 00:00N 49°47' W 000°23'3 6.2
2018-May-19 23:30N 49°50' W 000°22'3 6.0
2018-May-19 23:00N 49°53' W 000°21'3 5.3
2018-May-19 22:30N 49°55' W 000°20'3 5.0
2018-May-19 22:00N 49°58' W 000°19'3 5.3
2018-May-19 21:30N 50°00' W 000°18'3 5.6
2018-May-19 21:00N 50°03' W 000°17'3 5.9
2018-May-19 20:30N 50°06' W 000°17'3 6.1
2018-May-19 20:00N 50°09' W 000°16'3 6.1
2018-May-19 19:30N 50°12' W 000°15'3 5.9
2018-May-19 19:00N 50°15' W 000°14'3 5.9
2018-May-19 18:30N 50°18' W 000°13'3 5.9
2018-May-19 18:00N 50°21' W 000°12'3 5.4
2018-May-19 17:30N 50°23' W 000°11'3 5.6
2018-May-19 17:00N 50°26' W 000°11'3 6.1
2018-May-19 16:30N 50°28' W 000°07'3 6.5
2018-May-19 16:00N 50°29' W 000°02'3 6.3
2018-May-19 15:30N 50°30' E 000°03'3 6.0
2018-May-19 15:00N 50°31' E 000°07'3 5.6
2018-May-19 14:30N 50°32' E 000°11'3 5.4
2018-May-19 14:00N 50°33' E 000°15'3 5.2
2018-May-19 13:30N 50°34' E 000°19'3 5.2
2018-May-19 13:00N 50°35' E 000°23'3 5.1
2018-May-19 12:30N 50°36' E 000°26'2 4.9
2018-May-19 12:00N 50°37' E 000°30'2 4.9
2018-May-19 11:30N 50°38' E 000°33'2 4.7
2018-May-19 11:00N 50°39' E 000°36'2 4.5
2018-May-19 10:30N 50°41' E 000°39'3 5.1
2018-May-19 10:00N 50°42' E 000°43'3 6.0
2018-May-19 09:30N 50°44' E 000°46'3 6.7
2018-May-19 09:00N 50°46' E 000°51'4 7.1
2018-May-19 08:30N 50°48' E 000°55'4 7.4
2018-May-19 08:00N 50°50' E 001°00'5 7.3
2018-May-19 07:19N 50°53' E 001°06'13 8.5
2018-May-19 05:48N 51°01' E 001°22'310.0
2018-May-19 05:30N 51°03' E 001°26'5 9.2
2018-May-19 05:00N 51°06' E 001°31'4 7.7
2018-May-19 04:30N 51°09' E 001°36'4 7.0
2018-May-19 04:00N 51°11' E 001°40'4 7.0
2018-May-19 03:30N 51°13' E 001°44'4 7.1
2018-May-19 03:00N 51°16' E 001°48'4 7.4
2018-May-19 02:30N 51°19' E 001°52'4 7.9
2018-May-19 02:00N 51°22' E 001°56'4 8.2
2018-May-19 01:30N 51°24' E 002°01'4 8.7
2018-May-19 01:00N 51°21' E 002°06'5 9.1
2018-May-19 00:30N 51°17' E 002°09'5 9.0
2018-May-19 00:00N 51°13' E 002°13'4 8.0
2018-May-18 23:30N 51°10' E 002°10'4 7.7
2018-May-18 22:59N 51°07' E 002°05'4 7.2
2018-May-18 22:29N 51°05' E 002°00'3 6.9
2018-May-18 22:00N 51°04' E 001°56'4 7.3
2018-May-18 21:30N 51°03' E 002°01'611.8
2018-May-18 21:00N 51°03' E 002°11'612.0
2018-May-18 20:30N 51°04' E 002°20'1 2.1
2018-May-18 19:59N 51°03' E 002°21'0 0.8
2018-May-18 19:29N 51°03' E 002°21'3 4.4
2018-May-18 18:51N 51°02' E 002°16'0 0.0
2018-May-18 18:15N 51°02' E 002°16'0 0.0
2018-May-18 18:00N 51°02' E 002°16'0 0.0
2018-May-18 17:30N 51°02' E 002°16'0 0.0
2018-May-18 16:57N 51°02' E 002°16'0 0.0
2018-May-18 16:30N 51°02' E 002°16'0 0.0
2018-May-18 15:57N 51°02' E 002°16'0 0.0
2018-May-18 15:30N 51°02' E 002°16'0 0.0
2018-May-18 15:00N 51°02' E 002°16'0 0.0
2018-May-18 14:27N 51°02' E 002°16'0 0.0
2018-May-18 13:36N 51°02' E 002°16'0 0.0
2018-May-18 13:30N 51°02' E 002°16'0 0.0
2018-May-18 12:57N 51°02' E 002°16'0 0.0
2018-May-18 12:30N 51°02' E 002°16'0 0.0
2018-May-18 11:57N 51°02' E 002°16'0 0.0
2018-May-18 11:27N 51°02' E 002°16'0 0.0
2018-May-18 10:57N 51°02' E 002°16'0 0.0
2018-May-18 10:21N 51°02' E 002°16'0 0.0
2018-May-18 09:39N 51°02' E 002°16'0 0.0
2018-May-18 08:54N 51°02' E 002°16'0 0.0
2018-May-18 08:27N 51°02' E 002°16'0 0.0
2018-May-18 07:57N 51°02' E 002°16'0 0.0
2018-May-18 07:27N 51°02' E 002°16'0 0.0
2018-May-18 07:00N 51°02' E 002°16'0 0.0
2018-May-18 06:27N 51°02' E 002°16'0 0.0
2018-May-18 05:57N 51°02' E 002°16'0 0.0
2018-May-18 05:30N 51°02' E 002°16'0 0.0
2018-May-18 04:57N 51°02' E 002°16'0 0.0
2018-May-18 04:30N 51°02' E 002°16'0 0.0
2018-May-18 04:00N 51°02' E 002°16'0 0.0
2018-May-18 03:27N 51°02' E 002°16'0 0.0
2018-May-18 03:00N 51°02' E 002°16'0 0.0
2018-May-18 02:30N 51°02' E 002°16'0 0.0
2018-May-18 01:57N 51°02' E 002°16'0 0.0
2018-May-18 01:30N 51°02' E 002°16'0 0.0
2018-May-18 01:00N 51°02' E 002°16'0 0.0
2018-May-18 00:30N 51°02' E 002°16'0 0.0
2018-May-17 23:54N 51°02' E 002°16'0 0.0
2018-May-17 23:15N 51°02' E 002°16'0 0.0
2018-May-17 22:57N 51°02' E 002°16'0 0.0
2018-May-17 22:30N 51°02' E 002°16'0 0.0
2018-May-17 21:36N 51°02' E 002°16'0 0.0
2018-May-17 21:30N 51°02' E 002°16'0 0.0
2018-May-17 20:57N 51°02' E 002°16'0 0.0
2018-May-17 20:30N 51°02' E 002°16'0 0.0
2018-May-17 19:36N 51°02' E 002°16'0 0.1
2018-May-17 19:30N 51°02' E 002°16'0 0.0
2018-May-17 18:54N 51°02' E 002°16'0 0.0
2018-May-17 18:21N 51°02' E 002°16'0 0.0
2018-May-17 17:57N 51°02' E 002°16'0 0.0
2018-May-17 17:30N 51°02' E 002°16'0 0.0
2018-May-17 16:57N 51°02' E 002°16'0 0.0
2018-May-17 16:24N 51°02' E 002°16'0 0.0
2018-May-17 15:48N 51°02' E 002°16'0 0.0
2018-May-17 15:30N 51°02' E 002°16'0 0.0
2018-May-17 15:00N 51°02' E 002°16'0 0.0
2018-May-17 14:27N 51°02' E 002°16'0 0.0
2018-May-17 14:00N 51°02' E 002°16'0 0.0
2018-May-17 13:30N 51°02' E 002°16'0 0.0
2018-May-17 13:00N 51°02' E 002°16'0 0.0
2018-May-17 12:30N 51°02' E 002°16'0 0.0
2018-May-17 11:59N 51°02' E 002°16'2 4.4
2018-May-17 11:30N 51°03' E 002°19'1 1.0
2018-May-17 10:53N 51°03' E 002°20'0 1.2
2018-May-17 10:30N 51°04' E 002°21'3 5.1
2018-May-17 09:59N 51°04' E 002°17'4 7.4
2018-May-17 09:29N 51°03' E 002°11'3 7.2
2018-May-17 09:00N 51°03' E 002°06'3 6.5
2018-May-17 08:30N 51°02' E 002°00'3 6.3
2018-May-17 08:00N 51°02' E 001°55'3 6.3
2018-May-17 07:30N 51°05' E 001°59'4 8.3
2018-May-17 07:00N 51°07' E 002°05'4 8.5
2018-May-17 06:30N 51°09' E 002°10'4 8.4
2018-May-17 05:59N 51°14' E 002°12'4 8.6
2018-May-17 05:31N 51°17' E 002°09'4 8.4
2018-May-17 05:00N 51°20' E 002°04'4 8.5
2018-May-17 04:30N 51°23' E 001°59'4 8.4
2018-May-17 04:00N 51°25' E 001°53'4 8.5
2018-May-17 03:30N 51°27' E 001°48'3 6.7
2018-May-17 03:00N 51°31' E 001°46'4 7.6
2018-May-17 02:30N 51°35' E 001°46'4 8.2
2018-May-17 02:00N 51°39' E 001°46'4 8.1
2018-May-17 01:30N 51°43' E 001°46'4 8.6
2018-May-17 01:00N 51°47' E 001°45'5 9.2
2018-May-17 00:30N 51°51' E 001°45'5 9.5
2018-May-17 00:00N 51°56' E 001°45'510.2
2018-May-16 23:30N 52°01' E 001°46'510.7
2018-May-16 23:00N 52°07' E 001°47'2711.6
2018-May-16 20:43N 52°33' E 001°53'612.5
2018-May-16 20:15N 52°39' E 001°54'312.4
2018-May-16 20:00N 52°42' E 001°55'511.0
2018-May-16 19:30N 52°47' E 001°51'611.3
2018-May-16 19:00N 52°51' E 001°45'611.0
2018-May-16 18:30N 52°55' E 001°39'510.4
2018-May-16 18:00N 52°59' E 001°33'5 9.0
2018-May-16 17:30N 53°01' E 001°26'4 8.5
2018-May-16 17:00N 53°02' E 001°20'4 8.0
2018-May-16 16:30N 53°04' E 001°13'4 7.6
2018-May-16 16:00N 53°05' E 001°07'46 7.4
2018-May-16 09:46N 53°33' E 000°06'312.1
2018-May-16 09:30N 53°35' E 000°02'612.9
2018-May-16 09:00N 53°38' W 000°08'612.3
2018-May-16 08:30N 53°43' W 000°14'510.2
2018-May-16 08:00N 53°43' W 000°23'  
2018-May-13 03:41N 53°43' W 000°38'1 6.1
2018-May-13 03:29N 53°43' W 000°36'4 8.4
2018-May-13 03:00N 53°41' W 000°30'510.0
2018-May-13 02:30N 53°43' W 000°22'5 9.7
2018-May-13 02:00N 53°42' W 000°14'611.3
2018-May-13 01:30N 53°37' W 000°07'611.3
2018-May-13 01:00N 53°36' E 000°02'0 0.1
2018-May-12 23:50N 53°36' E 000°02'0 0.1
2018-May-12 23:20N 53°36' E 000°02'0 0.0
2018-May-12 21:26N 53°35' E 000°02'1 3.0
2018-May-12 20:59N 53°35' E 000°00'612.1
2018-May-12 20:30N 53°38' W 000°09'2 4.0
2018-May-12 19:58N 53°39' W 000°11'0 0.0
2018-May-12 19:28N 53°39' W 000°11'0 0.0
2018-May-12 18:58N 53°39' W 000°11'0 0.1
2018-May-12 18:28N 53°39' W 000°11'3 5.4
2018-May-12 18:00N 53°41' W 000°14'5 9.9
2018-May-12 17:30N 53°43' W 000°21'610.8
2018-May-12 16:58N 53°41' W 000°31'4 9.3
2018-May-12 16:31N 53°43' W 000°36'  
Track history (hours):
 
Tides and Currents Weather Stations Pressure Air Temp Water Temp Dewpoint Dewpoint Depression Visibility Wind Speed Wind Dir Waves Ship Positions

Clavigo

Last reported at 2018-May-21 15:00 UTC. Time now 2018-May-21 15:14 UTC.
Position N 49°28' E 000°40'.

Length 88 m; draft 3.5 m.

Type: Cargo ship. MMSI: 304010290.

Date/timePositionNaut miles runAvg speedWind from/ knotsBaromVisibWave heightAir tempDewpointWater temp
2018-May-21 15:00N 49°28' E 000°40'4 8.2
2018-May-21 14:31N 49°27' E 000°34'4 8.6
2018-May-21 14:01N 49°28' E 000°28'611.9
2018-May-21 13:30N 49°26' E 000°20'611.9
2018-May-21 13:00N 49°26' E 000°10'511.0
2018-May-21 12:31N 49°27' E 000°02'4 8.7
2018-May-21 12:01N 49°29' W 000°04'2 3.4
2018-May-21 11:30N 49°28' W 000°06'0 0.1
2018-May-21 11:00N 49°28' W 000°06'0 0.1
2018-May-21 10:30N 49°28' W 000°06'0 0.1
2018-May-21 10:00N 49°28' W 000°07'0 0.1
2018-May-21 09:30N 49°28' W 000°07'0 0.0
2018-May-21 09:00N 49°28' W 000°07'0 0.0
2018-May-21 08:30N 49°28' W 000°07'0 0.0
2018-May-21 08:00N 49°28' W 000°07'0 0.0
2018-May-21 07:30N 49°28' W 000°07'0 0.0
2018-May-21 07:00N 49°28' W 000°07'0 0.0
2018-May-21 06:27N 49°28' W 000°07'0 0.0
2018-May-21 05:57N 49°28' W 000°07'0 0.0
2018-May-21 05:30N 49°28' W 000°07'0 0.0
2018-May-21 05:00N 49°28' W 000°07'0 0.0
2018-May-21 04:30N 49°28' W 000°07'0 0.0
2018-May-21 04:00N 49°28' W 000°07'0 0.0
2018-May-21 03:30N 49°28' W 000°07'0 0.0
2018-May-21 03:00N 49°28' W 000°06'0 0.1
2018-May-21 02:30N 49°28' W 000°06'0 0.1
2018-May-21 02:00N 49°28' W 000°06'0 0.0
2018-May-21 01:27N 49°28' W 000°06'0 0.0
2018-May-21 01:00N 49°28' W 000°06'0 0.0
2018-May-21 00:30N 49°28' W 000°06'0 0.0
2018-May-21 00:00N 49°28' W 000°06'0 0.0
2018-May-20 23:30N 49°28' W 000°06'0 0.0
2018-May-20 23:00N 49°28' W 000°06'0 0.2
2018-May-20 22:30N 49°28' W 000°07'0 0.0
2018-May-20 22:00N 49°28' W 000°07'0 0.0
2018-May-20 21:30N 49°28' W 000°07'0 0.0
2018-May-20 21:00N 49°28' W 000°07'0 0.0
2018-May-20 20:30N 49°28' W 000°07'0 0.0
2018-May-20 20:00N 49°28' W 000°07'0 0.0
2018-May-20 19:30N 49°28' W 000°07'0 0.0
2018-May-20 19:00N 49°28' W 000°07'0 0.0
2018-May-20 18:27N 49°28' W 000°07'0 0.0
2018-May-20 17:57N 49°28' W 000°07'0 0.0
2018-May-20 17:30N 49°28' W 000°07'0 0.0
2018-May-20 17:00N 49°28' W 000°07'0 0.0
2018-May-20 16:30N 49°28' W 000°07'0 0.0
2018-May-20 16:00N 49°28' W 000°07'0 0.1
2018-May-20 15:30N 49°28' W 000°07'0 0.1
2018-May-20 15:00N 49°28' W 000°06'0 0.1
2018-May-20 14:30N 49°28' W 000°07'0 0.0
2018-May-20 14:00N 49°28' W 000°07'0 0.0
2018-May-20 13:27N 49°28' W 000°06'0 0.1
2018-May-20 13:00N 49°28' W 000°06'0 0.1
2018-May-20 12:30N 49°28' W 000°06'0 0.0
2018-May-20 12:00N 49°28' W 000°06'0 0.1
2018-May-20 11:30N 49°28' W 000°06'0 0.1
2018-May-20 11:00N 49°28' W 000°06'0 0.0
2018-May-20 10:30N 49°28' W 000°06'0 0.0
2018-May-20 10:00N 49°28' W 000°06'0 0.0
2018-May-20 09:30N 49°28' W 000°07'0 0.1
2018-May-20 09:00N 49°28' W 000°07'0 0.0
2018-May-20 08:30N 49°28' W 000°07'0 0.0
2018-May-20 08:00N 49°28' W 000°07'0 0.0
2018-May-20 07:30N 49°28' W 000°07'0 0.0
2018-May-20 06:57N 49°28' W 000°07'0 0.0
2018-May-20 06:30N 49°28' W 000°07'0 0.0
2018-May-20 06:00N 49°28' W 000°07'0 0.1
2018-May-20 05:30N 49°28' W 000°07'2 3.2
2018-May-20 05:00N 49°28' W 000°09'4 7.1
2018-May-20 04:30N 49°29' W 000°14'3 5.1
2018-May-20 04:00N 49°29' W 000°18'3 5.3
2018-May-20 03:30N 49°30' W 000°22'3 5.5
2018-May-20 03:00N 49°30' W 000°26'2 4.0
2018-May-20 02:30N 49°32' W 000°28'3 6.1
2018-May-20 02:00N 49°35' W 000°27'3 6.1
2018-May-20 01:30N 49°38' W 000°26'3 6.1
2018-May-20 01:00N 49°41' W 000°25'3 6.3
2018-May-20 00:30N 49°44' W 000°24'3 6.2
2018-May-20 00:00N 49°47' W 000°23'3 6.2
2018-May-19 23:30N 49°50' W 000°22'3 6.0
2018-May-19 23:00N 49°53' W 000°21'3 5.3
2018-May-19 22:30N 49°55' W 000°20'3 5.0
2018-May-19 22:00N 49°58' W 000°19'3 5.3
2018-May-19 21:30N 50°00' W 000°18'3 5.6
2018-May-19 21:00N 50°03' W 000°17'3 5.9
2018-May-19 20:30N 50°06' W 000°17'3 6.1
2018-May-19 20:00N 50°09' W 000°16'3 6.1
2018-May-19 19:30N 50°12' W 000°15'3 5.9
2018-May-19 19:00N 50°15' W 000°14'3 5.9
2018-May-19 18:30N 50°18' W 000°13'3 5.9
2018-May-19 18:00N 50°21' W 000°12'3 5.4
2018-May-19 17:30N 50°23' W 000°11'3 5.6
2018-May-19 17:00N 50°26' W 000°11'3 6.1
2018-May-19 16:30N 50°28' W 000°07'3 6.5
2018-May-19 16:00N 50°29' W 000°02'3 6.3
2018-May-19 15:30N 50°30' E 000°03'3 6.0
2018-May-19 15:00N 50°31' E 000°07'3 5.6
2018-May-19 14:30N 50°32' E 000°11'3 5.4
2018-May-19 14:00N 50°33' E 000°15'3 5.2
2018-May-19 13:30N 50°34' E 000°19'3 5.2
2018-May-19 13:00N 50°35' E 000°23'3 5.1
2018-May-19 12:30N 50°36' E 000°26'2 4.9
2018-May-19 12:00N 50°37' E 000°30'2 4.9
2018-May-19 11:30N 50°38' E 000°33'2 4.7
2018-May-19 11:00N 50°39' E 000°36'2 4.5
2018-May-19 10:30N 50°41' E 000°39'3 5.1
2018-May-19 10:00N 50°42' E 000°43'3 6.0
2018-May-19 09:30N 50°44' E 000°46'3 6.7
2018-May-19 09:00N 50°46' E 000°51'4 7.1
2018-May-19 08:30N 50°48' E 000°55'4 7.4
2018-May-19 08:00N 50°50' E 001°00'5 7.3
2018-May-19 07:19N 50°53' E 001°06'13 8.5
2018-May-19 05:48N 51°01' E 001°22'310.0
2018-May-19 05:30N 51°03' E 001°26'5 9.2
2018-May-19 05:00N 51°06' E 001°31'4 7.7
2018-May-19 04:30N 51°09' E 001°36'4 7.0
2018-May-19 04:00N 51°11' E 001°40'4 7.0
2018-May-19 03:30N 51°13' E 001°44'4 7.1
2018-May-19 03:00N 51°16' E 001°48'4 7.4
2018-May-19 02:30N 51°19' E 001°52'4 7.9
2018-May-19 02:00N 51°22' E 001°56'4 8.2
2018-May-19 01:30N 51°24' E 002°01'4 8.7
2018-May-19 01:00N 51°21' E 002°06'5 9.1
2018-May-19 00:30N 51°17' E 002°09'5 9.0
2018-May-19 00:00N 51°13' E 002°13'4 8.0
2018-May-18 23:30N 51°10' E 002°10'4 7.7
2018-May-18 22:59N 51°07' E 002°05'4 7.2
2018-May-18 22:29N 51°05' E 002°00'3 6.9
2018-May-18 22:00N 51°04' E 001°56'4 7.3
2018-May-18 21:30N 51°03' E 002°01'611.8
2018-May-18 21:00N 51°03' E 002°11'612.0
2018-May-18 20:30N 51°04' E 002°20'1 2.1
2018-May-18 19:59N 51°03' E 002°21'0 0.8
2018-May-18 19:29N 51°03' E 002°21'3 4.4
2018-May-18 18:51N 51°02' E 002°16'0 0.0
2018-May-18 18:15N 51°02' E 002°16'0 0.0
2018-May-18 18:00N 51°02' E 002°16'0 0.0
2018-May-18 17:30N 51°02' E 002°16'0 0.0
2018-May-18 16:57N 51°02' E 002°16'0 0.0
2018-May-18 16:30N 51°02' E 002°16'0 0.0
2018-May-18 15:57N 51°02' E 002°16'0 0.0
2018-May-18 15:30N 51°02' E 002°16'0 0.0
2018-May-18 15:00N 51°02' E 002°16'0 0.0
2018-May-18 14:27N 51°02' E 002°16'0 0.0
2018-May-18 13:36N 51°02' E 002°16'0 0.0
2018-May-18 13:30N 51°02' E 002°16'0 0.0
2018-May-18 12:57N 51°02' E 002°16'0 0.0
2018-May-18 12:30N 51°02' E 002°16'0 0.0
2018-May-18 11:57N 51°02' E 002°16'0 0.0
2018-May-18 11:27N 51°02' E 002°16'0 0.0
2018-May-18 10:57N 51°02' E 002°16'0 0.0
2018-May-18 10:21N 51°02' E 002°16'0 0.0
2018-May-18 09:39N 51°02' E 002°16'0 0.0
2018-May-18 08:54N 51°02' E 002°16'0 0.0
2018-May-18 08:27N 51°02' E 002°16'0 0.0
2018-May-18 07:57N 51°02' E 002°16'0 0.0
2018-May-18 07:27N 51°02' E 002°16'0 0.0
2018-May-18 07:00N 51°02' E 002°16'0 0.0
2018-May-18 06:27N 51°02' E 002°16'0 0.0
2018-May-18 05:57N 51°02' E 002°16'0 0.0
2018-May-18 05:30N 51°02' E 002°16'0 0.0
2018-May-18 04:57N 51°02' E 002°16'0 0.0
2018-May-18 04:30N 51°02' E 002°16'0 0.0
2018-May-18 04:00N 51°02' E 002°16'0 0.0
2018-May-18 03:27N 51°02' E 002°16'0 0.0
2018-May-18 03:00N 51°02' E 002°16'0 0.0
2018-May-18 02:30N 51°02' E 002°16'0 0.0
2018-May-18 01:57N 51°02' E 002°16'0 0.0
2018-May-18 01:30N 51°02' E 002°16'0 0.0
2018-May-18 01:00N 51°02' E 002°16'0 0.0
2018-May-18 00:30N 51°02' E 002°16'0 0.0
2018-May-17 23:54N 51°02' E 002°16'0 0.0
2018-May-17 23:15N 51°02' E 002°16'0 0.0
2018-May-17 22:57N 51°02' E 002°16'0 0.0
2018-May-17 22:30N 51°02' E 002°16'0 0.0
2018-May-17 21:36N 51°02' E 002°16'0 0.0
2018-May-17 21:30N 51°02' E 002°16'0 0.0
2018-May-17 20:57N 51°02' E 002°16'0 0.0
2018-May-17 20:30N 51°02' E 002°16'0 0.0
2018-May-17 19:36N 51°02' E 002°16'0 0.1
2018-May-17 19:30N 51°02' E 002°16'0 0.0
2018-May-17 18:54N 51°02' E 002°16'0 0.0
2018-May-17 18:21N 51°02' E 002°16'0 0.0
2018-May-17 17:57N 51°02' E 002°16'0 0.0
2018-May-17 17:30N 51°02' E 002°16'0 0.0
2018-May-17 16:57N 51°02' E 002°16'0 0.0
2018-May-17 16:24N 51°02' E 002°16'0 0.0
2018-May-17 15:48N 51°02' E 002°16'0 0.0
2018-May-17 15:30N 51°02' E 002°16'0 0.0
2018-May-17 15:00N 51°02' E 002°16'0 0.0
2018-May-17 14:27N 51°02' E 002°16'0 0.0
2018-May-17 14:00N 51°02' E 002°16'0 0.0
2018-May-17 13:30N 51°02' E 002°16'0 0.0
2018-May-17 13:00N 51°02' E 002°16'0 0.0
2018-May-17 12:30N 51°02' E 002°16'0 0.0
2018-May-17 11:59N 51°02' E 002°16'2 4.4
2018-May-17 11:30N 51°03' E 002°19'1 1.0
2018-May-17 10:53N 51°03' E 002°20'0 1.2
2018-May-17 10:30N 51°04' E 002°21'3 5.1
2018-May-17 09:59N 51°04' E 002°17'4 7.4
2018-May-17 09:29N 51°03' E 002°11'3 7.2
2018-May-17 09:00N 51°03' E 002°06'3 6.5
2018-May-17 08:30N 51°02' E 002°00'3 6.3
2018-May-17 08:00N 51°02' E 001°55'3 6.3
2018-May-17 07:30N 51°05' E 001°59'4 8.3
2018-May-17 07:00N 51°07' E 002°05'4 8.5
2018-May-17 06:30N 51°09' E 002°10'4 8.4
2018-May-17 05:59N 51°14' E 002°12'4 8.6
2018-May-17 05:31N 51°17' E 002°09'4 8.4
2018-May-17 05:00N 51°20' E 002°04'4 8.5
2018-May-17 04:30N 51°23' E 001°59'4 8.4
2018-May-17 04:00N 51°25' E 001°53'4 8.5
2018-May-17 03:30N 51°27' E 001°48'3 6.7
2018-May-17 03:00N 51°31' E 001°46'4 7.6
2018-May-17 02:30N 51°35' E 001°46'4 8.2
2018-May-17 02:00N 51°39' E 001°46'4 8.1
2018-May-17 01:30N 51°43' E 001°46'4 8.6
2018-May-17 01:00N 51°47' E 001°45'5 9.2
2018-May-17 00:30N 51°51' E 001°45'5 9.5
2018-May-17 00:00N 51°56' E 001°45'510.2
2018-May-16 23:30N 52°01' E 001°46'510.7
2018-May-16 23:00N 52°07' E 001°47'2711.6
2018-May-16 20:43N 52°33' E 001°53'612.5
2018-May-16 20:15N 52°39' E 001°54'312.4
2018-May-16 20:00N 52°42' E 001°55'511.0
2018-May-16 19:30N 52°47' E 001°51'611.3
2018-May-16 19:00N 52°51' E 001°45'611.0
2018-May-16 18:30N 52°55' E 001°39'510.4
2018-May-16 18:00N 52°59' E 001°33'5 9.0
2018-May-16 17:30N 53°01' E 001°26'4 8.5
2018-May-16 17:00N 53°02' E 001°20'4 8.0
2018-May-16 16:30N 53°04' E 001°13'4 7.6
2018-May-16 16:00N 53°05' E 001°07'46 7.4
2018-May-16 09:46N 53°33' E 000°06'312.1
2018-May-16 09:30N 53°35' E 000°02'612.9
2018-May-16 09:00N 53°38' W 000°08'612.3
2018-May-16 08:30N 53°43' W 000°14'510.2
2018-May-16 08:00N 53°43' W 000°23'  
2018-May-13 03:41N 53°43' W 000°38'1 6.1
2018-May-13 03:29N 53°43' W 000°36'4 8.4
2018-May-13 03:00N 53°41' W 000°30'510.0
2018-May-13 02:30N 53°43' W 000°22'5 9.7
2018-May-13 02:00N 53°42' W 000°14'611.3
2018-May-13 01:30N 53°37' W 000°07'611.3
2018-May-13 01:00N 53°36' E 000°02'0 0.1
2018-May-12 23:50N 53°36' E 000°02'0 0.1
2018-May-12 23:20N 53°36' E 000°02'0 0.0
2018-May-12 21:26N 53°35' E 000°02'1 3.0
2018-May-12 20:59N 53°35' E 000°00'612.1
2018-May-12 20:30N 53°38' W 000°09'2 4.0
2018-May-12 19:58N 53°39' W 000°11'0 0.0
2018-May-12 19:28N 53°39' W 000°11'0 0.0
2018-May-12 18:58N 53°39' W 000°11'0 0.1
2018-May-12 18:28N 53°39' W 000°11'3 5.4
2018-May-12 18:00N 53°41' W 000°14'5 9.9
2018-May-12 17:30N 53°43' W 000°21'610.8
2018-May-12 16:58N 53°41' W 000°31'4 9.3
2018-May-12 16:31N 53°43' W 000°36'  

Dump ship's entire track history